Terminal Aerodrome Forecast
Issued by NWS

Home | Current Version | Previous Version | Text Only | Print | Product List | Glossary On
Versions: 1 2 3 4 5 6 7 8 9 10 11 12 13 14 15 16 17 18 19 20 21 22 23 24 25 26 27 28
037
FTUS46 KOTX 301724
TAFMWH
TAF
KMWH 301724Z 3018/0118 17006KT P6SM -SHRA VCTS FEW060CB BKN100
     FM302000 19008KT P6SM SCT150 SCT200
     FM010200 17006KT P6SM -SHRA VCTS FEW070CB BKN080
     FM011000 20009KT P6SM SCT080 BKN110=

USA.gov is the U.S. government's official web portal to all federal, state and local government web resources and services.